Airport View

Enter AWOS ICAO identifier for current METAR.

ex. KFNL

KHFF 212256Z AUTO 20006KT 10SM CLR 27/17 A3019 RMK AO2 SLP237 T02660165 $

21 Sep 2019 23:54

Other Area AWOS: KSOP - KRCZ - KMEB - KPOB

TAF KPOB 211700Z 2117/2223 20006KT 9999 FEW055 QNH3019INS TX28/2121Z TN15/2211Z